createdAt,value
2019-02-05T00:01:08.600Z,26.86
2019-02-05T00:06:15.914Z,26.82
2019-02-05T00:11:23.381Z,26.56
2019-02-05T00:16:32.832Z,26.44
2019-02-05T00:21:41.372Z,26.27
2019-02-05T00:26:48.839Z,26.19
2019-02-05T00:31:56.819Z,26.13
2019-02-05T00:37:04.022Z,25.88
2019-02-05T00:42:11.391Z,25.89
2019-02-05T00:47:18.672Z,25.97
2019-02-05T00:52:25.927Z,25.87
2019-02-05T00:57:33.475Z,25.82
2019-02-05T01:02:41.035Z,25.71
2019-02-05T01:07:48.394Z,25.73
2019-02-05T01:12:56.046Z,25.70
2019-02-05T01:18:03.381Z,25.72
2019-02-05T01:23:10.899Z,25.67
2019-02-05T01:28:18.154Z,25.61
2019-02-05T01:33:25.563Z,25.56
2019-02-05T01:38:32.867Z,25.76
2019-02-05T01:43:40.375Z,25.75
2019-02-05T01:48:47.905Z,25.84
2019-02-05T01:53:55.391Z,25.87
2019-02-05T01:59:02.393Z,25.73
2019-02-05T02:04:09.593Z,25.72
2019-02-05T02:09:16.905Z,25.35
2019-02-05T02:14:23.895Z,25.11
2019-02-05T02:19:30.885Z,25.05
2019-02-05T02:24:37.889Z,24.75
2019-02-05T02:29:44.825Z,24.52
2019-02-05T02:34:52.854Z,24.44
2019-02-05T02:39:59.835Z,24.42
2019-02-05T02:45:07.828Z,24.36
2019-02-05T02:50:14.915Z,24.55
2019-02-05T02:55:21.846Z,24.79
2019-02-05T03:00:29.738Z,24.82
2019-02-05T03:05:36.741Z,24.81
2019-02-05T03:10:43.807Z,25.00
2019-02-05T03:16:02.177Z,25.16
2019-02-05T03:21:09.442Z,25.52
2019-02-05T03:26:16.485Z,25.61
2019-02-05T03:31:23.877Z,25.65
2019-02-05T03:36:30.965Z,25.51
2019-02-05T03:41:37.949Z,25.31
2019-02-05T03:46:44.949Z,25.03
2019-02-05T03:51:52.859Z,24.55
2019-02-05T03:56:59.969Z,24.46
2019-02-05T04:02:09.334Z,24.49
2019-02-05T04:07:16.706Z,24.30
2019-02-05T04:12:24.377Z,24.48
2019-02-05T04:17:32.865Z,24.51
2019-02-05T04:22:39.036Z,24.63
2019-02-05T04:27:47.454Z,24.77
2019-02-05T04:32:54.840Z,25.04
2019-02-05T04:38:01.461Z,25.07
2019-02-05T04:43:08.547Z,25.10
2019-02-05T04:48:15.660Z,25.16
2019-02-05T04:53:23.236Z,25.08
2019-02-05T04:58:30.225Z,25.07
2019-02-05T05:03:36.935Z,25.17
2019-02-05T05:08:44.034Z,25.11
2019-02-05T05:13:51.537Z,24.93
2019-02-05T05:18:58.645Z,24.78
2019-02-05T05:24:05.946Z,24.61
2019-02-05T05:29:12.945Z,24.44
2019-02-05T05:34:19.959Z,24.36
2019-02-05T05:39:27.028Z,24.54
2019-02-05T05:44:34.018Z,24.50
2019-02-05T05:49:41.389Z,24.26
2019-02-05T05:54:48.523Z,24.34
2019-02-05T05:59:55.690Z,24.24
2019-02-05T06:05:02.826Z,24.19
2019-02-05T06:10:09.915Z,24.30
2019-02-05T06:15:16.910Z,24.45
2019-02-05T06:20:23.909Z,24.48
2019-02-05T06:25:31.629Z,24.63
2019-02-05T06:30:38.845Z,24.71
2019-02-05T06:35:45.924Z,24.79
2019-02-05T06:40:52.911Z,24.92
2019-02-05T06:45:59.693Z,24.89
2019-02-05T06:51:06.804Z,24.74
2019-02-05T06:56:13.791Z,24.76
2019-02-05T07:01:20.992Z,24.52
2019-02-05T07:06:27.988Z,24.01
2019-02-05T07:11:34.982Z,23.70
2019-02-05T07:16:41.978Z,23.58
2019-02-05T07:21:48.771Z,23.56
2019-02-05T07:26:55.857Z,23.62
2019-02-05T07:32:02.877Z,23.76
2019-02-05T07:37:10.216Z,23.97
2019-02-05T07:42:16.946Z,24.25
2019-02-05T07:47:23.956Z,24.35
2019-02-05T07:52:30.938Z,24.25
2019-02-05T07:57:37.931Z,24.46
2019-02-05T08:02:45.377Z,24.64
2019-02-05T08:07:52.530Z,24.92
2019-02-05T08:12:59.641Z,24.67
2019-02-05T08:18:06.732Z,24.52
2019-02-05T08:23:14.848Z,24.51
2019-02-05T08:28:22.382Z,24.51
2019-02-05T08:33:29.451Z,24.55
2019-02-05T08:38:36.511Z,24.36
2019-02-05T08:43:43.437Z,24.66
2019-02-05T08:48:50.513Z,24.71
2019-02-05T08:53:57.576Z,24.69
2019-02-05T08:59:05.156Z,24.83
2019-02-05T09:04:12.653Z,24.19
2019-02-05T09:09:19.747Z,24.62
2019-02-05T09:14:28.221Z,24.57
2019-02-05T09:19:46.633Z,24.67
2019-02-05T09:24:53.826Z,24.77
2019-02-05T09:30:00.603Z,24.60
2019-02-05T09:35:07.837Z,24.31
2019-02-05T09:40:14.757Z,24.04
2019-02-05T09:45:21.620Z,24.26
2019-02-05T09:50:30.886Z,24.28
2019-02-05T09:55:38.335Z,24.53
2019-02-05T10:00:45.385Z,24.43
2019-02-05T10:05:52.870Z,24.38
2019-02-05T13:55:00.283Z,24.53
2019-02-05T14:00:09.070Z,24.10
2019-02-05T14:05:15.961Z,24.54
2019-02-05T14:10:24.613Z,24.73
2019-02-05T14:15:32.380Z,24.99
2019-02-05T14:20:40.638Z,25.03
2019-02-05T14:25:48.895Z,25.03
2019-02-05T14:30:56.368Z,25.01
2019-02-05T14:36:03.768Z,25.18
2019-02-05T14:41:10.972Z,25.00
2019-02-05T14:46:18.765Z,25.07
2019-02-05T14:51:25.981Z,25.09
2019-02-05T14:56:33.370Z,25.21
2019-02-05T15:01:43.114Z,24.92
2019-02-05T15:06:50.577Z,24.82
2019-02-05T15:11:57.842Z,25.06
2019-02-05T15:17:05.379Z,25.08
2019-02-05T15:22:12.755Z,25.08
2019-02-05T15:27:20.563Z,24.83
2019-02-05T15:33:19.917Z,24.82
2019-02-05T15:38:27.630Z,25.04
2019-02-05T15:43:34.646Z,25.09
2019-02-05T15:48:41.823Z,25.22
2019-02-05T15:53:49.126Z,25.28
2019-02-05T15:58:56.517Z,24.98
2019-02-05T16:04:03.960Z,25.12
2019-02-05T16:09:11.131Z,25.18
2019-02-05T16:14:18.457Z,25.15
2019-02-05T16:19:25.379Z,25.70
2019-02-05T16:24:33.367Z,26.14
2019-02-05T16:29:41.150Z,26.44
2019-02-05T16:34:48.646Z,26.17
2019-02-05T16:39:56.058Z,26.00
2019-02-05T16:45:03.974Z,25.85
2019-02-05T16:50:11.403Z,25.63
2019-02-05T16:55:18.931Z,25.64
2019-02-05T17:00:26.617Z,25.11
2019-02-05T17:05:33.991Z,24.85
2019-02-05T17:10:41.373Z,24.80
2019-02-05T17:15:48.690Z,24.69
2019-02-05T17:20:56.098Z,24.98
2019-02-05T17:26:03.481Z,25.12
2019-02-05T17:31:10.722Z,25.28
2019-02-05T17:36:19.236Z,25.58
2019-02-05T17:41:26.842Z,25.84
2019-02-05T17:46:34.404Z,26.10
2019-02-05T17:51:42.057Z,26.16
2019-02-05T17:56:49.388Z,25.99
2019-02-05T18:01:56.717Z,25.69
2019-02-05T18:07:04.374Z,25.76
2019-02-05T18:12:12.483Z,25.64
2019-02-05T18:17:20.036Z,25.17
2019-02-05T18:22:28.132Z,24.93
2019-02-05T18:27:36.859Z,24.79
2019-02-05T18:32:46.026Z,24.77
2019-02-05T18:37:54.021Z,24.74
2019-02-05T18:43:01.875Z,25.05
2019-02-05T18:48:08.872Z,25.38
2019-02-05T18:53:17.659Z,25.57
2019-02-05T18:58:26.868Z,25.57
2019-02-05T19:03:35.126Z,25.59
2019-02-05T19:08:43.570Z,25.58
2019-02-05T19:13:51.898Z,25.70
2019-02-05T19:19:00.835Z,25.56
2019-02-05T19:24:10.749Z,25.45
2019-02-05T19:29:19.514Z,25.65
2019-02-05T19:34:29.377Z,25.71
2019-02-05T19:39:38.873Z,25.47
2019-02-05T19:44:48.602Z,25.20
2019-02-05T19:49:57.630Z,25.72
2019-02-05T19:55:05.925Z,25.66
2019-02-05T20:00:25.659Z,25.78
2019-02-05T20:05:34.729Z,25.60
2019-02-05T23:02:46.676Z,26.29
2019-02-05T23:07:54.399Z,26.00
2019-02-05T23:13:05.500Z,25.82
2019-02-05T23:18:15.053Z,26.94
2019-02-05T23:23:24.613Z,27.15
2019-02-05T23:28:32.943Z,27.16
2019-02-05T23:33:41.026Z,27.20
2019-02-05T23:38:49.217Z,27.26
2019-02-05T23:43:57.949Z,27.35
2019-02-05T23:49:05.445Z,27.48
2019-02-05T23:54:14.064Z,27.50
2019-02-05T23:59:21.404Z,27.58
